Time;durP1;ratioP1;P1;durP2;ratioP2;P2;SDS_P1;SDS_P2;PMS_P1;PMS_P2;Temp;Humidity;BMP_temperature;BMP_pressure;BME280_temperature;BME280_humidity;BME280_pressure;Samples;Min_cycle;Max_cycle;Signal;HPM_P1;HPM_P2
2021/01/24 00:02:23;;;;;;;0.30;0.30;;;;;;;2.38;85.63;97088.22;2008481;78;21178;-76
2021/01/24 00:05:25;;;;;;;0.40;0.40;;;;;;;2.34;85.54;97093.38;2009629;80;20314;-76
2021/01/24 00:08:27;;;;;;;0.20;0.20;;;;;;;2.35;85.64;97102.75;2011116;80;20343;-77
2021/01/24 00:11:29;;;;;;;0.22;0.22;;;;;;;2.28;85.46;97114.75;2009286;80;20569;-77
2021/01/24 00:14:30;;;;;;;0.30;0.30;;;;;;;2.21;85.24;97125.91;2009416;80;20758;-78
2021/01/24 00:17:32;;;;;;;0.28;0.28;;;;;;;2.09;85.22;97118.31;2009554;78;21610;-77
2021/01/24 00:20:34;;;;;;;0.20;0.20;;;;;;;1.99;85.34;97129.50;2010747;80;20453;-78
2021/01/24 00:23:36;;;;;;;0.20;0.20;;;;;;;1.94;85.64;97131.22;2010415;80;20359;-77
2021/01/24 00:26:38;;;;;;;0.20;0.20;;;;;;;1.92;85.91;97135.50;2010287;80;20357;-77
2021/01/24 00:29:39;;;;;;;0.30;0.30;;;;;;;1.95;85.92;97148.25;2010268;80;20334;-77
2021/01/24 00:35:44;;;;;;;0.20;0.20;;;;;;;1.84;85.89;97142.38;2007048;80;20433;-78
2021/01/24 00:38:49;;;;;;;0.30;0.30;;;;;;;1.81;86.12;97162.03;2004562;80;20404;-78
2021/01/24 00:41:50;;;;;;;0.20;0.20;;;;;;;1.77;86.43;97155.19;2004232;80;20335;-78
2021/01/24 00:44:52;;;;;;;0.30;0.30;;;;;;;1.77;86.45;97173.09;2007709;80;20863;-78
2021/01/24 00:47:54;;;;;;;0.34;0.34;;;;;;;1.67;86.56;97163.78;2009313;78;21523;-78
2021/01/24 00:50:55;;;;;;;0.45;0.45;;;;;;;1.66;86.84;97167.22;2010075;80;20322;-79
2021/01/24 00:53:57;;;;;;;0.80;0.80;;;;;;;1.68;87.04;97175.72;2009804;80;20699;-77
2021/01/24 00:56:59;;;;;;;1.40;1.25;;;;;;;1.69;86.80;97197.88;2009922;80;20366;-77
2021/01/24 01:00:01;;;;;;;1.65;1.51;;;;;;;1.69;86.73;97190.22;2009847;80;20907;-78
2021/01/24 01:03:04;;;;;;;2.83;1.70;;;;;;;1.68;86.81;97201.31;2004593;78;20427;-78
2021/01/24 01:06:05;;;;;;;2.33;2.13;;;;;;;1.69;86.91;97208.13;2005867;80;21283;-77
2021/01/24 01:09:07;;;;;;;2.15;1.95;;;;;;;1.70;86.60;97214.09;2004838;80;20348;-78
2021/01/24 01:12:09;;;;;;;3.78;2.17;;;;;;;1.68;86.32;97216.66;2004652;80;20347;-77
2021/01/24 01:15:11;;;;;;;4.70;2.42;;;;;;;1.64;86.31;97230.31;2004011;80;20461;-77
2021/01/24 01:18:13;;;;;;;3.97;2.79;;;;;;;1.61;86.27;97216.66;2004188;80;20774;-77
2021/01/24 01:21:14;;;;;;;2.99;2.38;;;;;;;1.60;86.18;97235.44;2004118;80;20384;-77
2021/01/24 01:24:16;;;;;;;3.69;2.69;;;;;;;1.55;86.20;97240.56;2003303;80;21320;-77
2021/01/24 01:27:17;;;;;;;4.30;2.91;;;;;;;1.57;86.05;97240.56;2002620;80;20342;-77
2021/01/24 01:30:19;;;;;;;3.88;2.51;;;;;;;1.51;85.76;97246.56;2002821;78;23835;-77
2021/01/24 01:33:21;;;;;;;4.07;3.20;;;;;;;1.48;85.56;97249.97;2008591;80;20330;-76
2021/01/24 01:36:23;;;;;;;2.84;2.64;;;;;;;1.48;85.44;97265.31;2008239;80;20369;-77
2021/01/24 01:39:25;;;;;;;4.18;2.54;;;;;;;1.46;85.37;97267.03;2008195;80;20391;-76
2021/01/24 01:46:28;;;;;;;3.49;2.55;;;;;;;1.44;85.36;97284.09;2006823;78;20810;-76
2021/01/24 01:49:31;;;;;;;3.66;2.80;;;;;;;1.44;85.33;97293.47;2007709;80;20339;-76
2021/01/24 01:52:32;;;;;;;3.20;2.90;;;;;;;1.40;85.63;97300.28;2008242;80;20810;-76
2021/01/24 01:55:34;;;;;;;2.89;2.54;;;;;;;1.42;85.85;97297.72;2008073;80;21402;-76
2021/01/24 01:58:36;;;;;;;5.11;2.65;;;;;;;1.42;85.45;97305.38;2007869;80;20556;-76
2021/01/24 02:02:00;;;;;;;6.49;2.63;;;;;;;1.43;85.53;97312.19;2007157;78;21506;-76
2021/01/24 02:05:08;;;;;;;3.69;2.38;;;;;;;1.46;85.64;97322.44;2007908;80;20800;-76
2021/01/24 02:08:17;;;;;;;5.26;3.20;;;;;;;1.42;85.03;97320.72;2008283;80;20306;-76
2021/01/24 02:11:53;;;;;;;3.78;2.44;;;;;;;1.41;85.07;97324.13;2007906;80;20334;-76
2021/01/24 02:15:00;;;;;;;5.89;2.54;;;;;;;1.38;84.62;97336.91;2007882;80;20337;-76
2021/01/24 02:18:06;;;;;;;6.23;2.46;;;;;;;1.38;84.62;97335.22;2002088;78;20320;-76
2021/01/24 02:21:39;;;;;;;2.84;2.04;;;;;;;1.41;84.57;97342.03;2002877;80;20177;-76
2021/01/24 02:24:48;;;;;;;2.80;2.17;;;;;;;1.41;84.27;97344.59;2000800;80;20361;-76
2021/01/24 02:28:03;;;;;;;2.50;1.84;;;;;;;1.38;84.08;97344.59;2004091;80;20195;-76
2021/01/24 02:31:06;;;;;;;2.60;2.08;;;;;;;1.33;83.91;97361.66;2003563;79;20341;-76
2021/01/24 02:34:08;;;;;;;4.54;2.57;;;;;;;1.29;84.00;97372.75;2004384;80;20312;-76
2021/01/24 02:37:12;;;;;;;2.65;1.99;;;;;;;1.27;83.76;97382.13;2004138;80;20713;-76
2021/01/24 02:40:14;;;;;;;2.47;2.19;;;;;;;1.25;83.97;97394.00;2003911;80;20311;-76
2021/01/24 02:43:17;;;;;;;4.00;2.49;;;;;;;1.21;83.44;97391.47;2003837;80;20331;-75
2021/01/24 02:46:19;;;;;;;3.36;2.11;;;;;;;1.21;83.64;97396.56;2005580;78;20813;-75
2021/01/24 02:49:22;;;;;;;4.07;2.40;;;;;;;1.23;83.69;97400.84;2009071;80;20318;-75
2021/01/24 02:52:25;;;;;;;3.89;2.39;;;;;;;1.20;83.23;97407.66;2009518;80;20554;-75
2021/01/24 02:55:27;;;;;;;4.03;2.15;;;;;;;1.20;83.02;97409.34;2009407;80;20326;-75
2021/01/24 02:58:30;;;;;;;3.89;2.01;;;;;;;1.16;82.75;97420.44;2010033;80;20669;-75
2021/01/24 03:01:32;;;;;;;2.92;1.76;;;;;;;1.17;82.83;97417.88;2009451;78;20910;-75
2021/01/24 03:04:34;;;;;;;3.49;2.00;;;;;;;1.15;83.21;97422.13;2010766;80;20357;-75
2021/01/24 03:07:36;;;;;;;1.84;1.61;;;;;;;1.11;82.89;97437.47;2010497;80;20310;-75
2021/01/24 03:10:38;;;;;;;2.76;1.88;;;;;;;1.06;82.81;97440.00;2010093;80;20345;-75
2021/01/24 03:13:49;;;;;;;5.51;2.69;;;;;;;1.05;83.01;97440.00;2010651;80;20302;-76
2021/01/24 03:16:55;;;;;;;3.01;1.76;;;;;;;1.04;83.04;97449.38;2010054;79;20646;-75
2021/01/24 03:19:58;;;;;;;3.19;2.24;;;;;;;1.05;83.10;97453.63;2010949;80;20314;-76
2021/01/24 03:23:02;;;;;;;3.63;1.64;;;;;;;1.05;83.01;97465.56;2010761;80;20201;-75
2021/01/24 03:26:06;;;;;;;3.19;1.75;;;;;;;1.04;83.01;97463.84;2010679;80;20445;-76
2021/01/24 03:29:08;;;;;;;1.63;1.52;;;;;;;1.01;82.71;97469.81;2011709;80;20925;-76
2021/01/24 03:32:10;;;;;;;2.76;1.65;;;;;;;0.99;82.58;97474.06;2009768;78;20322;-75
2021/01/24 03:35:12;;;;;;;2.47;1.63;;;;;;;0.97;82.24;97465.56;2010024;80;20417;-75
2021/01/24 03:38:14;;;;;;;4.04;1.60;;;;;;;0.89;82.36;97480.84;2010863;80;20912;-76
2021/01/24 03:41:15;;;;;;;1.70;1.60;;;;;;;0.82;82.49;97485.94;2010582;80;20318;-75
2021/01/24 03:44:17;;;;;;;4.33;1.62;;;;;;;0.80;82.66;97485.09;2010709;80;20192;-76
2021/01/24 03:47:19;;;;;;;2.70;1.70;;;;;;;0.72;82.08;97482.53;2009921;78;21106;-76
2021/01/24 03:50:21;;;;;;;3.64;1.46;;;;;;;0.73;82.32;97491.91;2011018;80;20343;-75
2021/01/24 03:53:23;;;;;;;2.14;1.55;;;;;;;0.70;81.34;97491.00;2010536;80;20228;-76
2021/01/24 03:56:25;;;;;;;1.92;1.49;;;;;;;0.69;81.52;97500.38;2011264;80;20303;-76
2021/01/24 03:59:26;;;;;;;1.77;1.22;;;;;;;0.67;81.15;97512.28;2011197;80;20253;-75
2021/01/24 04:02:29;;;;;;;1.72;1.27;;;;;;;0.69;81.31;97510.56;2008814;78;28495;-75
2021/01/24 04:05:30;;;;;;;2.30;1.40;;;;;;;0.66;81.08;97518.22;2009221;80;20188;-76
2021/01/24 04:08:32;;;;;;;2.64;1.76;;;;;;;0.63;81.15;97512.25;2009516;80;20277;-76
2021/01/24 04:11:37;;;;;;;3.10;1.33;;;;;;;0.63;81.14;97518.22;2009342;80;20930;-75
2021/01/24 04:14:38;;;;;;;2.26;1.50;;;;;;;0.60;80.77;97510.56;2008997;80;20214;-76
2021/01/24 04:17:40;;;;;;;2.11;1.20;;;;;;;0.60;80.37;97520.78;2008960;78;20192;-76
2021/01/24 04:20:42;;;;;;;1.48;1.38;;;;;;;0.63;80.74;97532.69;2009443;80;20302;-76
2021/01/24 04:23:43;;;;;;;1.51;1.30;;;;;;;0.62;80.83;97538.66;2009458;80;20202;-75
2021/01/24 04:26:45;;;;;;;1.32;1.22;;;;;;;0.63;80.99;97537.81;2009472;80;20218;-76
2021/01/24 04:29:47;;;;;;;2.97;1.23;;;;;;;0.63;80.73;97545.47;2009561;80;20226;-76
2021/01/24 04:32:48;;;;;;;1.67;1.51;;;;;;;0.63;80.80;97542.91;2008280;78;21267;-76
2021/01/24 04:35:50;;;;;;;2.00;1.10;;;;;;;0.65;80.98;97548.88;2008629;80;20185;-75
2021/01/24 04:38:52;;;;;;;1.50;0.99;;;;;;;0.63;80.81;97553.97;2009135;80;20340;-75
2021/01/24 04:41:54;;;;;;;1.82;1.22;;;;;;;0.66;80.69;97555.69;2009145;80;20804;-76
2021/01/24 04:44:56;;;;;;;2.53;1.15;;;;;;;0.66;80.29;97548.88;2009469;80;20184;-76
2021/01/24 04:47:58;;;;;;;2.10;1.04;;;;;;;0.68;80.28;97554.84;2008179;78;26034;-75
2021/01/24 04:50:59;;;;;;;1.10;1.00;;;;;;;0.71;80.68;97552.31;2009623;80;20200;-76
2021/01/24 04:54:01;;;;;;;1.28;1.18;;;;;;;0.73;80.51;97565.09;2008976;80;20319;-76
2021/01/24 04:57:03;;;;;;;2.32;1.57;;;;;;;0.73;80.48;97558.28;2008516;80;20211;-76
2021/01/24 05:00:05;;;;;;;1.86;1.26;;;;;;;0.74;80.02;97567.66;2008994;80;20217;-76
2021/01/24 05:03:07;;;;;;;1.91;1.25;;;;;;;0.75;80.14;97569.38;2009494;77;20344;-75
2021/01/24 05:06:09;;;;;;;2.22;1.19;;;;;;;0.71;79.67;97566.78;2009309;80;20337;-76
2021/01/24 05:09:12;;;;;;;4.23;1.53;;;;;;;0.67;79.58;97563.34;2010193;80;20241;-76
2021/01/24 05:12:15;;;;;;;2.80;1.55;;;;;;;0.63;79.65;97568.44;2010738;80;20207;-76
2021/01/24 05:15:17;;;;;;;1.27;1.17;;;;;;;0.61;79.82;97571.00;2009275;77;20307;-76
2021/01/24 05:18:21;;;;;;;3.40;1.48;;;;;;;0.59;80.19;97576.09;2010984;80;20314;-75
2021/01/24 05:21:26;;;;;;;2.10;1.51;;;;;;;0.57;80.48;97570.13;2010581;80;20253;-75
2021/01/24 05:24:29;;;;;;;1.94;1.56;;;;;;;0.53;79.88;97573.50;2009879;80;20206;-75
2021/01/24 05:27:31;;;;;;;3.47;1.72;;;;;;;0.55;80.16;97570.97;2010261;80;20192;-76
2021/01/24 05:30:32;;;;;;;1.86;1.55;;;;;;;0.56;80.06;97588.00;2009414;78;20836;-75
2021/01/24 05:33:42;;;;;;;1.89;1.36;;;;;;;0.56;80.12;97590.56;2009783;80;20351;-76
2021/01/24 05:36:45;;;;;;;2.12;1.58;;;;;;;0.59;80.51;97601.63;2010826;80;20771;-75
2021/01/24 05:39:47;;;;;;;1.69;1.38;;;;;;;0.63;80.25;97597.38;2009516;80;20714;-76
2021/01/24 05:42:48;;;;;;;2.00;1.70;;;;;;;0.67;79.94;97600.81;2009463;80;20200;-76
2021/01/24 05:45:51;;;;;;;2.51;1.62;;;;;;;0.66;79.62;97594.84;2011097;78;21814;-75
2021/01/24 05:48:52;;;;;;;4.06;1.61;;;;;;;0.66;79.59;97604.22;2010824;80;20216;-75
2021/01/24 05:52:07;;;;;;;2.99;1.50;;;;;;;0.64;79.75;97619.53;2010216;80;20446;-75
2021/01/24 05:55:09;;;;;;;3.20;1.74;;;;;;;0.64;79.90;97624.63;2009306;80;20267;-75
2021/01/24 05:58:19;;;;;;;3.50;2.28;;;;;;;0.66;79.85;97628.06;2010128;80;20198;-75
2021/01/24 06:01:23;;;;;;;2.46;1.74;;;;;;;0.66;80.02;97632.31;2008495;78;20628;-75
2021/01/24 06:04:25;;;;;;;3.76;2.14;;;;;;;0.71;80.25;97635.72;2010078;80;20334;-76
2021/01/24 06:07:27;;;;;;;2.08;1.91;;;;;;;0.75;80.30;97629.81;2009474;80;20322;-76
2021/01/24 06:10:29;;;;;;;3.53;2.01;;;;;;;0.73;79.80;97642.59;2009820;80;20241;-75
2021/01/24 06:13:33;;;;;;;2.76;1.76;;;;;;;0.79;80.02;97651.97;2009459;80;20303;-75
2021/01/24 06:16:39;;;;;;;3.67;2.17;;;;;;;0.79;79.84;97646.88;2009059;80;20890;-75
2021/01/24 06:19:46;;;;;;;2.30;1.81;;;;;;;0.81;80.03;97647.72;2009897;80;20192;-75
2021/01/24 06:23:07;;;;;;;3.16;1.92;;;;;;;0.78;80.28;97646.00;2010288;80;20250;-75
2021/01/24 06:26:13;;;;;;;3.10;2.04;;;;;;;0.79;80.08;97657.94;2009538;80;20310;-75
2021/01/24 06:29:18;;;;;;;3.60;2.21;;;;;;;0.77;79.89;97651.97;2009728;80;20218;-75
2021/01/24 06:32:28;;;;;;;2.13;1.80;;;;;;;0.77;79.79;97659.63;2008550;78;21256;-75
2021/01/24 06:35:30;;;;;;;2.51;1.69;;;;;;;0.75;80.09;97663.88;2009438;80;20244;-75
2021/01/24 06:38:39;;;;;;;4.20;2.31;;;;;;;0.74;79.76;97663.88;2009513;80;20202;-76
2021/01/24 06:41:45;;;;;;;2.29;1.91;;;;;;;0.71;79.63;97664.69;2009308;80;20184;-75
2021/01/24 06:44:47;;;;;;;3.08;2.16;;;;;;;0.71;79.65;97676.59;2010049;80;20351;-75
2021/01/24 06:47:49;;;;;;;3.22;1.73;;;;;;;0.68;79.56;97666.38;2009444;78;23284;-71
2021/01/24 06:50:51;;;;;;;2.18;1.72;;;;;;;0.66;79.36;97673.16;2009301;80;20244;-72
2021/01/24 06:53:52;;;;;;;3.53;1.88;;;;;;;0.57;79.55;97685.03;2009345;80;20212;-72
2021/01/24 06:57:09;;;;;;;2.89;1.88;;;;;;;0.56;79.73;97677.38;2009269;80;20261;-72
2021/01/24 07:00:20;;;;;;;2.33;1.86;;;;;;;0.57;79.96;97694.41;2009181;80;21458;-72
2021/01/24 07:03:22;;;;;;;3.42;2.16;;;;;;;0.56;80.00;97685.88;2009829;80;20192;-73
2021/01/24 07:06:32;;;;;;;2.10;1.89;;;;;;;0.53;79.85;97693.50;2009454;80;20449;-71
2021/01/24 07:09:38;;;;;;;2.30;1.91;;;;;;;0.56;79.70;97695.25;2009986;80;20337;-73
2021/01/24 07:12:42;;;;;;;1.67;1.43;;;;;;;0.53;79.90;97695.19;2009653;80;20684;-72
2021/01/24 07:15:57;;;;;;;4.56;1.65;;;;;;;0.54;79.68;97717.38;2009031;78;21900;-72
2021/01/24 07:19:00;;;;;;;2.47;1.86;;;;;;;0.51;79.81;97723.28;2009867;80;20415;-75
2021/01/24 07:22:04;;;;;;;1.93;1.59;;;;;;;0.54;79.99;97730.13;2009351;80;20223;-72
2021/01/24 07:25:07;;;;;;;3.38;1.76;;;;;;;0.55;79.74;97742.91;2009913;80;20222;-78
2021/01/24 07:28:09;;;;;;;2.38;1.54;;;;;;;0.55;79.78;97745.47;2010931;80;20277;-80
2021/01/24 07:31:11;;;;;;;2.37;1.69;;;;;;;0.52;79.56;97749.66;2012179;78;20311;-79
2021/01/24 07:34:14;;;;;;;2.30;1.76;;;;;;;0.55;79.86;97754.81;2014334;80;20253;-79
2021/01/24 07:37:22;;;;;;;1.86;1.40;;;;;;;0.56;80.03;97753.97;2028733;70;20265;-82
2021/01/24 07:40:24;;;;;;;3.43;1.76;;;;;;;0.57;80.13;97761.66;2027153;80;20176;-82
2021/01/24 07:43:27;;;;;;;3.06;1.81;;;;;;;0.60;80.37;97769.31;2017084;80;20442;-74
2021/01/24 07:46:29;;;;;;;1.86;1.48;;;;;;;0.63;80.23;97771.03;2008917;77;20662;-76
2021/01/24 07:49:31;;;;;;;4.59;1.46;;;;;;;0.67;80.02;97774.47;2013936;80;20597;-81
2021/01/24 07:52:33;;;;;;;3.60;1.51;;;;;;;0.73;80.06;97787.31;2014977;80;20216;-76
2021/01/24 07:55:38;;;;;;;1.84;1.70;;;;;;;0.75;80.00;97795.84;2009946;80;20203;-76
2021/01/24 07:58:40;;;;;;;4.14;1.76;;;;;;;0.79;79.81;97798.44;2014046;80;20189;-80
2021/01/24 08:01:42;;;;;;;2.81;1.54;;;;;;;0.87;79.63;97801.03;2020512;78;20471;-81
2021/01/24 08:04:44;;;;;;;1.33;1.23;;;;;;;0.94;79.46;97804.50;2021490;80;20223;-81
2021/01/24 08:07:46;;;;;;;4.67;1.22;;;;;;;0.97;78.84;97815.59;2014711;80;20164;-81
2021/01/24 08:10:48;;;;;;;2.79;1.30;;;;;;;1.04;78.98;97817.34;2021512;80;20196;-81
2021/01/24 08:13:49;;;;;;;4.18;1.40;;;;;;;1.09;79.19;97825.09;2021374;80;20180;-81
2021/01/24 08:16:52;;;;;;;1.88;1.40;;;;;;;1.14;78.85;97824.25;2023973;78;20188;-83
2021/01/24 08:19:56;;;;;;;2.50;1.30;;;;;;;1.25;78.58;97839.66;2023802;80;20310;-83
2021/01/24 08:22:58;;;;;;;1.57;1.47;;;;;;;1.32;78.95;97849.09;2018135;80;20303;-82
2021/01/24 08:25:59;;;;;;;2.22;1.36;;;;;;;1.35;78.03;97849.13;2021932;80;20192;-81
2021/01/24 08:29:01;;;;;;;1.48;1.11;;;;;;;1.38;77.76;97863.63;2019578;80;20198;-82
2021/01/24 08:32:05;;;;;;;3.79;1.33;;;;;;;1.41;77.29;97853.41;2022236;77;22344;-83
2021/01/24 08:35:08;;;;;;;2.88;1.25;;;;;;;1.42;76.75;97852.56;2019131;80;20385;-84
2021/01/24 08:38:12;;;;;;;3.30;1.20;;;;;;;1.47;77.01;97859.44;2025715;80;20344;-82
2021/01/24 08:41:16;;;;;;;2.97;1.20;;;;;;;1.53;76.81;97861.19;2026705;80;20374;-83
2021/01/24 08:44:17;;;;;;;2.24;1.39;;;;;;;1.58;76.66;97864.59;2026632;80;20313;-84
2021/01/24 08:47:22;;;;;;;3.46;1.29;;;;;;;1.61;76.45;97866.31;2026405;77;20333;-83
2021/01/24 08:50:29;;;;;;;2.55;1.15;;;;;;;1.65;76.18;97871.50;2028663;80;20393;-84
2021/01/24 08:53:30;;;;;;;1.65;1.19;;;;;;;1.60;75.62;97865.47;2027889;80;20282;-83
2021/01/24 08:56:32;;;;;;;2.13;1.10;;;;;;;1.54;75.32;97877.38;2023975;80;20359;-83
2021/01/24 08:59:35;;;;;;;3.15;1.54;;;;;;;1.55;75.83;97877.38;2028952;80;20333;-84
2021/01/24 09:02:39;;;;;;;2.54;1.51;;;;;;;1.58;75.75;97881.66;2026739;77;54693;-85
2021/01/24 09:05:41;;;;;;;2.21;1.23;;;;;;;1.57;75.52;97887.63;2032141;80;20320;-83
2021/01/24 09:08:52;;;;;;;4.72;1.25;;;;;;;1.59;75.78;97893.59;2028679;80;20378;-85
2021/01/24 09:15:33;;;;;;;2.84;1.30;;;;;;;1.58;75.21;97902.97;2084691;69;252628;-83
2021/01/24 09:18:35;;;;;;;1.85;1.00;;;;;;;1.61;75.62;97909.81;2035919;80;20475;-85
2021/01/24 09:21:37;;;;;;;1.20;1.10;;;;;;;1.61;75.29;97907.25;2030511;80;21204;-80
2021/01/24 09:55:04;;;;;;;2.21;1.20;;;;;;;1.97;73.47;97935.63;2197637;70;20306;-86
2021/01/24 10:01:40;;;;;;;2.56;1.00;;;;;;;1.99;73.64;97936.53;2144573;70;20413;-78
2021/01/24 10:04:42;;;;;;;1.17;0.93;;;;;;;1.96;72.98;97948.44;2033962;70;20338;-84
2021/01/24 10:07:44;;;;;;;1.79;1.06;;;;;;;1.91;73.07;97956.09;2016642;81;20381;-84
2021/01/24 10:14:17;;;;;;;;;;;;;;;1.85;73.08;97960.31;2042688;70;20342;-85
2021/01/24 10:17:23;;;;;;;1.26;0.74;;;;;;;1.79;73.13;97967.09;2002537;81;925937;-84
2021/01/24 10:20:28;;;;;;;3.39;1.03;;;;;;;1.75;73.26;97975.59;2018382;80;20471;-84
2021/01/24 10:23:30;;;;;;;2.06;1.02;;;;;;;1.77;73.34;97976.44;2023054;81;20179;-85
2021/01/24 10:26:34;;;;;;;2.80;0.70;;;;;;;1.78;73.63;97984.97;2016016;81;20314;-83
2021/01/24 10:29:39;;;;;;;1.74;0.70;;;;;;;1.81;72.88;97990.16;2018328;81;20344;-85
2021/01/24 10:32:44;;;;;;;1.69;0.70;;;;;;;1.89;73.11;98000.44;2017519;78;186748;-83
2021/01/24 10:35:47;;;;;;;2.89;0.89;;;;;;;1.99;73.41;98007.34;2017679;81;20341;-83
2021/01/24 10:38:49;;;;;;;0.69;0.69;;;;;;;2.02;72.56;98009.91;2009794;81;20296;-84
2021/01/24 10:41:54;;;;;;;1.14;0.65;;;;;;;2.10;72.66;98005.69;2018749;81;20338;-84
2021/01/24 10:48:27;;;;;;;0.90;0.70;;;;;;;2.23;71.75;98010.06;2029871;70;20345;-84
2021/01/24 10:51:32;;;;;;;0.96;0.60;;;;;;;2.24;70.72;98013.47;2017941;81;20344;-84
2021/01/24 10:54:35;;;;;;;0.86;0.66;;;;;;;2.24;71.35;98010.91;2021630;80;20281;-82
2021/01/24 10:57:38;;;;;;;0.70;0.70;;;;;;;2.27;71.02;98001.53;2009681;81;20328;-83
2021/01/24 11:00:40;;;;;;;1.75;0.95;;;;;;;2.32;70.79;98009.25;2015256;78;255463;-84
2021/01/24 11:03:42;;;;;;;1.75;0.80;;;;;;;2.36;71.15;98014.41;2018082;80;20301;-83
2021/01/24 11:06:44;;;;;;;0.90;0.86;;;;;;;2.39;70.79;98009.31;2014388;81;20396;-84
2021/01/24 11:09:46;;;;;;;0.81;0.70;;;;;;;2.37;69.63;98012.72;2023387;81;20458;-84
2021/01/24 11:16:04;;;;;;;0.94;0.60;;;;;;;2.29;68.65;98007.53;2115057;70;1002107;-83
2021/01/24 11:19:16;;;;;;;2.19;0.57;;;;;;;2.32;69.96;98015.22;2086693;70;20259;-84
2021/01/24 11:22:24;;;;;;;0.91;0.79;;;;;;;2.35;69.42;98011.84;2016755;81;20276;-83
2021/01/24 11:25:26;;;;;;;1.79;0.63;;;;;;;2.38;69.89;98017.84;2016244;80;20340;-82
2021/01/24 11:28:29;;;;;;;1.74;0.91;;;;;;;2.47;70.36;98013.59;2018274;81;20366;-83
2021/01/24 11:31:32;;;;;;;1.58;0.90;;;;;;;2.52;69.88;98022.19;2018728;80;20347;-83
2021/01/24 11:34:36;;;;;;;0.91;0.85;;;;;;;2.62;69.92;98014.53;2021509;80;20594;-84
2021/01/24 11:37:41;;;;;;;1.13;0.93;;;;;;;2.65;69.29;98008.56;2016708;81;20316;-84
2021/01/24 11:40:43;;;;;;;1.19;0.80;;;;;;;2.63;68.76;98015.38;2008991;80;20357;-84
2021/01/24 11:43:45;;;;;;;3.05;0.75;;;;;;;2.62;68.82;98006.00;2007876;81;20356;-80
2021/01/24 11:46:47;;;;;;;1.11;0.80;;;;;;;2.65;69.01;98024.78;2003642;78;23440;-80
2021/01/24 11:49:49;;;;;;;1.61;1.01;;;;;;;2.63;68.68;98026.50;2017352;81;20491;-83
2021/01/24 11:52:50;;;;;;;0.89;0.89;;;;;;;2.63;68.91;98015.38;2014523;80;20320;-82
2021/01/24 11:55:55;;;;;;;0.73;0.73;;;;;;;2.61;69.04;98024.78;2009795;81;20350;-83
2021/01/24 11:58:57;;;;;;;0.95;0.80;;;;;;;2.60;68.65;98015.38;2013218;81;20338;-81
2021/01/24 12:01:59;;;;;;;0.70;0.70;;;;;;;2.62;68.53;98014.53;2013536;81;21101;-77
2021/01/24 12:05:01;;;;;;;2.75;0.70;;;;;;;2.60;68.00;98023.06;1999305;81;20354;-77
2021/01/24 12:08:05;;;;;;;1.00;0.91;;;;;;;2.59;67.12;98005.97;2000837;81;20324;-79
2021/01/24 12:11:08;;;;;;;1.71;0.75;;;;;;;2.59;67.64;98006.84;2000853;81;20855;-78
2021/01/24 12:14:10;;;;;;;1.60;0.85;;;;;;;2.63;67.84;97994.91;2000828;80;20352;-75
2021/01/24 12:17:11;;;;;;;1.46;0.84;;;;;;;2.70;67.89;98001.78;2002030;78;38747;-79
2021/01/24 12:20:14;;;;;;;1.60;0.77;;;;;;;2.83;68.44;97989.84;2002331;81;20300;-81
2021/01/24 12:23:16;;;;;;;1.25;0.93;;;;;;;2.92;68.51;97988.19;2011377;80;20328;-78
2021/01/24 12:26:18;;;;;;;3.15;1.00;;;;;;;2.97;68.45;97983.91;2004036;81;20320;-78
2021/01/24 12:29:20;;;;;;;1.01;0.85;;;;;;;3.02;67.72;97977.09;2013608;81;20356;-82
2021/01/24 12:32:21;;;;;;;1.49;0.89;;;;;;;3.09;67.53;97977.13;2013434;78;22104;-82
2021/01/24 12:35:23;;;;;;;2.83;0.70;;;;;;;3.16;67.54;97969.44;2013254;80;20312;-83
2021/01/24 12:38:25;;;;;;;1.34;1.21;;;;;;;3.28;67.53;97972.03;2014453;81;20324;-82
2021/01/24 12:41:27;;;;;;;1.40;0.60;;;;;;;3.27;67.14;97967.75;2012845;81;20334;-82
2021/01/24 12:44:28;;;;;;;1.59;0.82;;;;;;;3.26;67.28;97966.03;2011080;80;20390;-78
2021/01/24 12:47:30;;;;;;;2.28;0.71;;;;;;;3.27;67.36;97965.19;2002193;79;21063;-79
2021/01/24 12:50:32;;;;;;;1.48;0.90;;;;;;;3.23;66.76;97960.91;2002319;81;20527;-79
2021/01/24 12:53:33;;;;;;;1.44;0.80;;;;;;;3.14;66.54;97952.34;2002034;80;20324;-79
2021/01/24 12:56:37;;;;;;;1.92;0.71;;;;;;;3.09;66.95;97951.47;2001946;81;20332;-78
2021/01/24 12:59:41;;;;;;;0.76;0.76;;;;;;;3.07;65.90;97956.59;2001529;81;20357;-78
2021/01/24 13:02:43;;;;;;;1.33;0.69;;;;;;;3.10;65.65;97953.19;2001370;78;20640;-79
2021/01/24 13:05:45;;;;;;;0.95;0.61;;;;;;;3.11;65.75;97948.06;2000799;81;20966;-79
2021/01/24 13:08:47;;;;;;;2.69;0.55;;;;;;;3.10;66.02;97948.06;2001697;81;20475;-80
2021/01/24 13:11:49;;;;;;;1.77;0.60;;;;;;;3.10;65.41;97941.22;2000974;81;20350;-78
2021/01/24 13:14:51;;;;;;;0.65;0.50;;;;;;;3.08;65.53;97939.50;2002314;80;20596;-79
2021/01/24 13:17:52;;;;;;;0.47;0.40;;;;;;;3.08;65.80;97930.13;1999391;79;22860;-79
2021/01/24 13:20:54;;;;;;;2.05;0.70;;;;;;;3.13;65.25;97935.25;2003229;81;21305;-79
2021/01/24 13:23:56;;;;;;;0.63;0.60;;;;;;;3.16;65.01;97940.38;2001862;80;20838;-80
2021/01/24 13:26:57;;;;;;;1.17;0.60;;;;;;;3.21;65.64;97936.94;2001786;81;21103;-79
2021/01/24 13:29:59;;;;;;;1.85;0.68;;;;;;;3.25;65.77;97932.69;2002319;81;20718;-80
2021/01/24 13:33:01;;;;;;;1.00;0.55;;;;;;;3.28;65.78;97937.84;1996400;78;22608;-80
2021/01/24 13:36:03;;;;;;;1.38;0.57;;;;;;;3.36;66.20;97940.38;1998419;81;20343;-80
2021/01/24 13:39:05;;;;;;;0.99;0.54;;;;;;;3.43;66.47;97925.03;2002381;81;20375;-77
2021/01/24 13:42:07;;;;;;;0.69;0.52;;;;;;;3.51;65.69;97930.13;2003201;81;20347;-80
2021/01/24 13:45:10;;;;;;;1.91;0.50;;;;;;;3.56;65.83;97931.84;2006030;81;20338;-80
2021/01/24 13:48:11;;;;;;;3.06;1.05;;;;;;;3.63;66.40;97933.56;2000565;78;20420;-78
2021/01/24 13:51:13;;;;;;;1.15;0.64;;;;;;;3.70;65.89;97925.84;1997486;81;20335;-79
2021/01/24 13:54:16;;;;;;;1.02;0.60;;;;;;;3.75;65.84;97926.69;2000670;81;20325;-80
2021/01/24 13:57:20;;;;;;;2.16;0.44;;;;;;;3.77;65.48;97918.16;1998545;81;20446;-79
2021/01/24 14:00:22;;;;;;;1.91;0.50;;;;;;;3.80;65.16;97925.00;1995701;79;36446;-78
2021/01/24 14:03:23;;;;;;;1.84;0.50;;;;;;;3.78;64.73;97927.56;1997489;81;20766;-79
2021/01/24 14:06:25;;;;;;;1.74;0.50;;;;;;;3.79;65.13;97921.56;1997124;81;20339;-79
2021/01/24 14:09:27;;;;;;;1.13;0.52;;;;;;;3.82;65.11;97923.28;1998206;81;20351;-79
2021/01/24 14:12:28;;;;;;;1.31;0.40;;;;;;;3.86;65.61;97922.41;1996320;81;20343;-80
2021/01/24 14:15:33;;;;;;;1.05;0.50;;;;;;;3.79;63.55;97919.00;1995299;79;22839;-79
2021/01/24 14:18:35;;;;;;;1.09;0.50;;;;;;;3.77;63.20;97917.28;1996441;81;21010;-79
2021/01/24 14:21:37;;;;;;;1.13;0.47;;;;;;;3.67;62.41;97923.28;1995187;81;20361;-79
2021/01/24 14:24:38;;;;;;;1.45;0.40;;;;;;;3.58;63.20;97925.00;1995572;81;20767;-78
2021/01/24 14:27:41;;;;;;;1.50;0.35;;;;;;;3.56;63.21;97921.56;1997104;81;20357;-78
2021/01/24 14:30:43;;;;;;;0.59;0.45;;;;;;;3.59;64.13;97931.88;1997200;78;22334;-78
2021/01/24 14:33:44;;;;;;;1.79;0.32;;;;;;;3.57;64.96;97942.97;2000517;80;20321;-79
2021/01/24 14:36:46;;;;;;;2.78;0.46;;;;;;;3.54;64.35;97930.13;1999918;81;20874;-78
2021/01/24 14:39:48;;;;;;;0.99;0.40;;;;;;;3.50;64.38;97934.41;2000785;81;20320;-79
2021/01/24 14:42:51;;;;;;;0.85;0.40;;;;;;;3.43;64.11;97937.84;2001847;81;20336;-78
2021/01/24 14:46:05;;;;;;;0.54;0.38;;;;;;;3.38;63.28;97941.25;1998839;78;20332;-77
2021/01/24 14:49:07;;;;;;;2.11;0.35;;;;;;;3.27;61.97;97926.72;2000393;81;20956;-79
2021/01/24 14:52:09;;;;;;;1.09;0.30;;;;;;;3.25;62.72;97920.72;2000503;81;20350;-79
2021/01/24 14:55:11;;;;;;;0.30;0.30;;;;;;;3.21;62.75;97915.56;2000294;80;20407;-78
2021/01/24 14:58:12;;;;;;;1.96;0.35;;;;;;;3.17;63.36;97904.47;2000228;81;20321;-79
2021/01/24 15:01:14;;;;;;;0.93;0.40;;;;;;;3.14;63.24;97906.19;1999524;78;36149;-78
2021/01/24 15:04:15;;;;;;;0.88;0.30;;;;;;;3.08;63.38;97907.03;1999636;80;20803;-78
2021/01/24 15:07:19;;;;;;;1.24;0.39;;;;;;;3.01;63.11;97905.31;2000293;81;20320;-77
2021/01/24 15:10:21;;;;;;;2.60;0.40;;;;;;;2.97;63.53;97901.88;2001826;81;20445;-78
2021/01/24 15:13:23;;;;;;;0.51;0.26;;;;;;;2.94;64.94;97901.88;2000355;80;20438;-79
2021/01/24 15:16:24;;;;;;;0.64;0.40;;;;;;;2.92;64.50;97892.47;1999125;78;23039;-78
2021/01/24 15:19:26;;;;;;;1.90;0.61;;;;;;;2.88;63.46;97881.38;2000180;81;20345;-79
2021/01/24 15:22:28;;;;;;;1.25;0.40;;;;;;;2.86;64.47;97869.38;2000553;81;20727;-79
2021/01/24 15:25:30;;;;;;;1.31;0.75;;;;;;;2.84;65.69;97859.13;2000375;80;20467;-79
2021/01/24 15:28:32;;;;;;;1.38;0.55;;;;;;;2.79;66.22;97871.09;2000810;81;20732;-79